sensor_id;sensor_type;location;lat;lon;timestamp;P1;durP1;ratioP1;P2;durP2;ratioP2
23814;SDS011;12088;53.078;8.720;2023-03-23T00:01:20;4.73;;;3.40;;
23814;SDS011;12088;53.078;8.720;2023-03-23T00:03:50;5.17;;;3.47;;
23814;SDS011;12088;53.078;8.720;2023-03-23T00:06:17;10.30;;;2.57;;
23814;SDS011;12088;53.078;8.720;2023-03-23T00:08:44;7.17;;;4.37;;
23814;SDS011;12088;53.078;8.720;2023-03-23T00:11:12;5.07;;;3.17;;
23814;SDS011;12088;53.078;8.720;2023-03-23T00:13:40;3.87;;;2.80;;
23814;SDS011;12088;53.078;8.720;2023-03-23T00:16:07;4.37;;;2.53;;
23814;SDS011;12088;53.078;8.720;2023-03-23T00:18:42;5.57;;;3.53;;
23814;SDS011;12088;53.078;8.720;2023-03-23T00:21:09;6.97;;;3.20;;
23814;SDS011;12088;53.078;8.720;2023-03-23T00:23:34;4.40;;;3.30;;
23814;SDS011;12088;53.078;8.720;2023-03-23T00:26:00;4.17;;;3.53;;
23814;SDS011;12088;53.078;8.720;2023-03-23T00:28:26;8.57;;;4.13;;
23814;SDS011;12088;53.078;8.720;2023-03-23T00:30:59;5.57;;;3.13;;
23814;SDS011;12088;53.078;8.720;2023-03-23T00:33:27;6.03;;;2.63;;
23814;SDS011;12088;53.078;8.720;2023-03-23T00:35:54;5.50;;;3.60;;
23814;SDS011;12088;53.078;8.720;2023-03-23T00:38:23;4.73;;;3.43;;
23814;SDS011;12088;53.078;8.720;2023-03-23T00:40:49;7.47;;;3.97;;
23814;SDS011;12088;53.078;8.720;2023-03-23T00:43:16;8.77;;;3.63;;
23814;SDS011;12088;53.078;8.720;2023-03-23T00:45:43;5.77;;;3.33;;
23814;SDS011;12088;53.078;8.720;2023-03-23T00:48:10;5.80;;;3.73;;
23814;SDS011;12088;53.078;8.720;2023-03-23T00:50:37;3.03;;;2.70;;
23814;SDS011;12088;53.078;8.720;2023-03-23T00:53:03;7.63;;;4.03;;
23814;SDS011;12088;53.078;8.720;2023-03-23T00:55:29;5.73;;;3.63;;
23814;SDS011;12088;53.078;8.720;2023-03-23T00:57:55;6.63;;;3.77;;
23814;SDS011;12088;53.078;8.720;2023-03-23T01:00:21;5.97;;;3.33;;
23814;SDS011;12088;53.078;8.720;2023-03-23T01:02:47;6.83;;;3.33;;
23814;SDS011;12088;53.078;8.720;2023-03-23T01:05:16;5.60;;;3.77;;
23814;SDS011;12088;53.078;8.720;2023-03-23T01:07:41;8.73;;;4.40;;
23814;SDS011;12088;53.078;8.720;2023-03-23T01:10:09;4.67;;;2.93;;
23814;SDS011;12088;53.078;8.720;2023-03-23T01:12:37;6.37;;;4.07;;
23814;SDS011;12088;53.078;8.720;2023-03-23T01:15:06;5.70;;;4.00;;
23814;SDS011;12088;53.078;8.720;2023-03-23T01:17:31;5.27;;;3.30;;
23814;SDS011;12088;53.078;8.720;2023-03-23T01:19:57;5.97;;;3.83;;
23814;SDS011;12088;53.078;8.720;2023-03-23T01:22:22;4.23;;;2.83;;
23814;SDS011;12088;53.078;8.720;2023-03-23T01:24:48;4.60;;;2.87;;
23814;SDS011;12088;53.078;8.720;2023-03-23T01:27:13;9.40;;;3.73;;
23814;SDS011;12088;53.078;8.720;2023-03-23T01:29:39;4.80;;;3.83;;
23814;SDS011;12088;53.078;8.720;2023-03-23T01:32:04;9.47;;;3.60;;
23814;SDS011;12088;53.078;8.720;2023-03-23T01:34:30;6.00;;;3.77;;
23814;SDS011;12088;53.078;8.720;2023-03-23T01:36:56;5.23;;;3.97;;
23814;SDS011;12088;53.078;8.720;2023-03-23T01:39:22;3.43;;;2.77;;
23814;SDS011;12088;53.078;8.720;2023-03-23T01:41:47;5.60;;;3.90;;
23814;SDS011;12088;53.078;8.720;2023-03-23T01:46:41;7.00;;;4.03;;
23814;SDS011;12088;53.078;8.720;2023-03-23T01:49:08;5.40;;;3.43;;
23814;SDS011;12088;53.078;8.720;2023-03-23T01:51:38;4.70;;;3.27;;
23814;SDS011;12088;53.078;8.720;2023-03-23T01:54:12;7.50;;;4.77;;
23814;SDS011;12088;53.078;8.720;2023-03-23T01:56:40;7.40;;;4.43;;
23814;SDS011;12088;53.078;8.720;2023-03-23T01:59:10;7.40;;;4.60;;
23814;SDS011;12088;53.078;8.720;2023-03-23T02:01:37;8.90;;;4.67;;
23814;SDS011;12088;53.078;8.720;2023-03-23T02:04:08;10.90;;;4.33;;
23814;SDS011;12088;53.078;8.720;2023-03-23T02:06:34;9.73;;;4.40;;
23814;SDS011;12088;53.078;8.720;2023-03-23T02:08:59;10.10;;;5.30;;
23814;SDS011;12088;53.078;8.720;2023-03-23T02:11:25;10.40;;;4.70;;
23814;SDS011;12088;53.078;8.720;2023-03-23T02:13:51;6.90;;;4.30;;
23814;SDS011;12088;53.078;8.720;2023-03-23T02:16:20;8.77;;;3.63;;
23814;SDS011;12088;53.078;8.720;2023-03-23T02:18:57;7.00;;;3.90;;
23814;SDS011;12088;53.078;8.720;2023-03-23T02:29:57;5.13;;;3.70;;
23814;SDS011;12088;53.078;8.720;2023-03-23T02:35:34;7.77;;;3.80;;
23814;SDS011;12088;53.078;8.720;2023-03-23T02:38:08;6.97;;;4.03;;
23814;SDS011;12088;53.078;8.720;2023-03-23T02:40:36;6.23;;;3.93;;
23814;SDS011;12088;53.078;8.720;2023-03-23T02:43:09;6.37;;;4.40;;
23814;SDS011;12088;53.078;8.720;2023-03-23T02:45:38;11.73;;;4.50;;
23814;SDS011;12088;53.078;8.720;2023-03-23T02:48:06;5.50;;;3.90;;
23814;SDS011;12088;53.078;8.720;2023-03-23T02:50:33;6.57;;;4.20;;
23814;SDS011;12088;53.078;8.720;2023-03-23T02:53:01;7.33;;;5.27;;
23814;SDS011;12088;53.078;8.720;2023-03-23T02:55:32;7.27;;;3.83;;
23814;SDS011;12088;53.078;8.720;2023-03-23T02:57:59;6.30;;;3.50;;
23814;SDS011;12088;53.078;8.720;2023-03-23T03:00:26;6.90;;;4.13;;
23814;SDS011;12088;53.078;8.720;2023-03-23T03:02:53;6.67;;;4.03;;
23814;SDS011;12088;53.078;8.720;2023-03-23T03:13:23;9.43;;;3.70;;
23814;SDS011;12088;53.078;8.720;2023-03-23T03:16:21;6.70;;;3.53;;
23814;SDS011;12088;53.078;8.720;2023-03-23T03:19:06;8.20;;;4.97;;
23814;SDS011;12088;53.078;8.720;2023-03-23T03:21:50;4.53;;;3.33;;
23814;SDS011;12088;53.078;8.720;2023-03-23T03:24:18;7.20;;;4.27;;
23814;SDS011;12088;53.078;8.720;2023-03-23T03:26:46;7.10;;;4.70;;
23814;SDS011;12088;53.078;8.720;2023-03-23T03:29:15;4.90;;;3.27;;
23814;SDS011;12088;53.078;8.720;2023-03-23T03:31:47;6.97;;;2.97;;
23814;SDS011;12088;53.078;8.720;2023-03-23T03:34:15;7.10;;;3.53;;
23814;SDS011;12088;53.078;8.720;2023-03-23T03:36:42;9.87;;;5.00;;
23814;SDS011;12088;53.078;8.720;2023-03-23T03:39:10;4.40;;;3.23;;
23814;SDS011;12088;53.078;8.720;2023-03-23T03:41:37;10.60;;;3.70;;
23814;SDS011;12088;53.078;8.720;2023-03-23T03:44:04;9.57;;;4.47;;
23814;SDS011;12088;53.078;8.720;2023-03-23T03:46:31;3.90;;;2.97;;
23814;SDS011;12088;53.078;8.720;2023-03-23T03:48:57;6.57;;;4.00;;
23814;SDS011;12088;53.078;8.720;2023-03-23T03:51:25;8.07;;;4.07;;
23814;SDS011;12088;53.078;8.720;2023-03-23T03:53:51;5.40;;;3.37;;
23814;SDS011;12088;53.078;8.720;2023-03-23T03:56:17;7.73;;;3.80;;
23814;SDS011;12088;53.078;8.720;2023-03-23T03:58:42;6.97;;;3.90;;
23814;SDS011;12088;53.078;8.720;2023-03-23T04:01:08;10.73;;;3.10;;
23814;SDS011;12088;53.078;8.720;2023-03-23T04:03:40;9.60;;;4.20;;
23814;SDS011;12088;53.078;8.720;2023-03-23T04:06:06;6.23;;;3.90;;
23814;SDS011;12088;53.078;8.720;2023-03-23T04:08:32;5.77;;;3.53;;
23814;SDS011;12088;53.078;8.720;2023-03-23T04:10:58;6.47;;;3.17;;
23814;SDS011;12088;53.078;8.720;2023-03-23T04:13:24;7.13;;;3.17;;
23814;SDS011;12088;53.078;8.720;2023-03-23T04:15:49;4.27;;;3.07;;
23814;SDS011;12088;53.078;8.720;2023-03-23T04:18:15;7.57;;;3.40;;
23814;SDS011;12088;53.078;8.720;2023-03-23T04:20:43;6.03;;;3.57;;
23814;SDS011;12088;53.078;8.720;2023-03-23T04:23:12;5.50;;;3.43;;
23814;SDS011;12088;53.078;8.720;2023-03-23T04:25:38;4.43;;;3.00;;
23814;SDS011;12088;53.078;8.720;2023-03-23T04:28:06;4.83;;;2.60;;
23814;SDS011;12088;53.078;8.720;2023-03-23T04:30:35;4.30;;;3.07;;
23814;SDS011;12088;53.078;8.720;2023-03-23T04:33:01;4.20;;;3.13;;
23814;SDS011;12088;53.078;8.720;2023-03-23T04:35:26;4.43;;;2.33;;
23814;SDS011;12088;53.078;8.720;2023-03-23T04:37:53;5.73;;;3.93;;
23814;SDS011;12088;53.078;8.720;2023-03-23T04:40:19;6.93;;;3.33;;
23814;SDS011;12088;53.078;8.720;2023-03-23T04:42:45;6.63;;;3.30;;
23814;SDS011;12088;53.078;8.720;2023-03-23T04:45:12;3.43;;;2.63;;
23814;SDS011;12088;53.078;8.720;2023-03-23T04:47:40;6.03;;;3.63;;
23814;SDS011;12088;53.078;8.720;2023-03-23T04:50:07;3.07;;;2.30;;
23814;SDS011;12088;53.078;8.720;2023-03-23T04:52:34;4.07;;;3.00;;
23814;SDS011;12088;53.078;8.720;2023-03-23T04:55:02;3.50;;;2.10;;
23814;SDS011;12088;53.078;8.720;2023-03-23T04:57:32;3.23;;;2.30;;
23814;SDS011;12088;53.078;8.720;2023-03-23T04:59:59;4.60;;;2.67;;
23814;SDS011;12088;53.078;8.720;2023-03-23T05:02:25;4.87;;;3.00;;
23814;SDS011;12088;53.078;8.720;2023-03-23T05:04:55;3.33;;;2.57;;
23814;SDS011;12088;53.078;8.720;2023-03-23T05:07:22;5.17;;;2.23;;
23814;SDS011;12088;53.078;8.720;2023-03-23T05:09:48;3.43;;;2.47;;
23814;SDS011;12088;53.078;8.720;2023-03-23T05:12:14;3.27;;;1.90;;
23814;SDS011;12088;53.078;8.720;2023-03-23T05:14:41;1.93;;;1.67;;
23814;SDS011;12088;53.078;8.720;2023-03-23T05:17:07;4.47;;;2.87;;
23814;SDS011;12088;53.078;8.720;2023-03-23T05:19:34;4.17;;;2.60;;
23814;SDS011;12088;53.078;8.720;2023-03-23T05:22:00;3.13;;;2.83;;
23814;SDS011;12088;53.078;8.720;2023-03-23T05:24:29;3.67;;;1.73;;
23814;SDS011;12088;53.078;8.720;2023-03-23T05:26:57;2.57;;;2.00;;
23814;SDS011;12088;53.078;8.720;2023-03-23T05:29:28;3.30;;;1.77;;
23814;SDS011;12088;53.078;8.720;2023-03-23T05:31:55;4.53;;;2.13;;
23814;SDS011;12088;53.078;8.720;2023-03-23T05:34:24;3.90;;;2.63;;
23814;SDS011;12088;53.078;8.720;2023-03-23T05:36:51;4.60;;;1.77;;
23814;SDS011;12088;53.078;8.720;2023-03-23T05:39:18;3.23;;;1.80;;
23814;SDS011;12088;53.078;8.720;2023-03-23T05:41:43;9.17;;;3.17;;
23814;SDS011;12088;53.078;8.720;2023-03-23T05:44:09;5.50;;;2.27;;
23814;SDS011;12088;53.078;8.720;2023-03-23T05:46:35;3.90;;;2.53;;
23814;SDS011;12088;53.078;8.720;2023-03-23T05:49:00;4.80;;;2.63;;
23814;SDS011;12088;53.078;8.720;2023-03-23T05:51:27;3.63;;;2.47;;
23814;SDS011;12088;53.078;8.720;2023-03-23T05:53:52;7.70;;;2.87;;
23814;SDS011;12088;53.078;8.720;2023-03-23T05:56:18;2.20;;;2.00;;
23814;SDS011;12088;53.078;8.720;2023-03-23T05:58:44;4.33;;;2.50;;
23814;SDS011;12088;53.078;8.720;2023-03-23T06:01:09;2.97;;;2.57;;
23814;SDS011;12088;53.078;8.720;2023-03-23T06:03:37;2.70;;;2.07;;
23814;SDS011;12088;53.078;8.720;2023-03-23T06:06:03;4.60;;;2.10;;
23814;SDS011;12088;53.078;8.720;2023-03-23T06:08:28;6.73;;;2.70;;
23814;SDS011;12088;53.078;8.720;2023-03-23T06:10:55;5.53;;;2.50;;
23814;SDS011;12088;53.078;8.720;2023-03-23T06:13:21;5.87;;;2.50;;
23814;SDS011;12088;53.078;8.720;2023-03-23T06:15:47;2.23;;;1.70;;
23814;SDS011;12088;53.078;8.720;2023-03-23T06:18:13;2.97;;;1.73;;
23814;SDS011;12088;53.078;8.720;2023-03-23T06:20:39;2.10;;;1.70;;
23814;SDS011;12088;53.078;8.720;2023-03-23T06:23:05;2.70;;;2.50;;
23814;SDS011;12088;53.078;8.720;2023-03-23T06:25:31;4.83;;;2.47;;
23814;SDS011;12088;53.078;8.720;2023-03-23T06:27:57;5.77;;;2.53;;
23814;SDS011;12088;53.078;8.720;2023-03-23T06:30:23;3.20;;;1.93;;
23814;SDS011;12088;53.078;8.720;2023-03-23T06:32:49;2.50;;;2.07;;
23814;SDS011;12088;53.078;8.720;2023-03-23T06:35:15;2.33;;;1.87;;
23814;SDS011;12088;53.078;8.720;2023-03-23T06:37:41;4.93;;;2.37;;
23814;SDS011;12088;53.078;8.720;2023-03-23T06:40:07;2.60;;;1.80;;
23814;SDS011;12088;53.078;8.720;2023-03-23T06:42:34;5.00;;;2.10;;
23814;SDS011;12088;53.078;8.720;2023-03-23T06:45:00;2.67;;;2.07;;
23814;SDS011;12088;53.078;8.720;2023-03-23T06:47:27;2.80;;;2.07;;
23814;SDS011;12088;53.078;8.720;2023-03-23T06:49:58;2.03;;;1.47;;
23814;SDS011;12088;53.078;8.720;2023-03-23T06:52:24;2.00;;;1.67;;
23814;SDS011;12088;53.078;8.720;2023-03-23T06:54:50;4.40;;;2.43;;
23814;SDS011;12088;53.078;8.720;2023-03-23T06:57:16;4.10;;;2.00;;
23814;SDS011;12088;53.078;8.720;2023-03-23T06:59:42;6.37;;;3.00;;
23814;SDS011;12088;53.078;8.720;2023-03-23T07:02:09;8.90;;;2.73;;
23814;SDS011;12088;53.078;8.720;2023-03-23T07:04:36;9.97;;;3.13;;
23814;SDS011;12088;53.078;8.720;2023-03-23T07:07:03;2.10;;;1.90;;
23814;SDS011;12088;53.078;8.720;2023-03-23T07:09:29;3.87;;;2.20;;
23814;SDS011;12088;53.078;8.720;2023-03-23T07:11:55;4.60;;;2.60;;
23814;SDS011;12088;53.078;8.720;2023-03-23T07:14:21;3.47;;;2.77;;
23814;SDS011;12088;53.078;8.720;2023-03-23T07:16:47;4.90;;;2.23;;
23814;SDS011;12088;53.078;8.720;2023-03-23T07:19:13;5.03;;;2.40;;
23814;SDS011;12088;53.078;8.720;2023-03-23T07:21:38;3.90;;;2.47;;
23814;SDS011;12088;53.078;8.720;2023-03-23T07:24:04;2.60;;;2.40;;
23814;SDS011;12088;53.078;8.720;2023-03-23T07:26:29;5.03;;;3.23;;
23814;SDS011;12088;53.078;8.720;2023-03-23T07:28:55;3.27;;;2.27;;
23814;SDS011;12088;53.078;8.720;2023-03-23T07:31:20;1.80;;;1.17;;
23814;SDS011;12088;53.078;8.720;2023-03-23T07:33:47;1.97;;;1.77;;
23814;SDS011;12088;53.078;8.720;2023-03-23T07:36:12;1.80;;;1.13;;
23814;SDS011;12088;53.078;8.720;2023-03-23T07:38:38;1.80;;;0.83;;
23814;SDS011;12088;53.078;8.720;2023-03-23T07:41:03;1.10;;;1.00;;
23814;SDS011;12088;53.078;8.720;2023-03-23T07:43:30;1.17;;;1.07;;
23814;SDS011;12088;53.078;8.720;2023-03-23T07:45:55;1.13;;;0.90;;
23814;SDS011;12088;53.078;8.720;2023-03-23T07:48:21;1.27;;;1.00;;
23814;SDS011;12088;53.078;8.720;2023-03-23T07:50:47;2.73;;;1.00;;
23814;SDS011;12088;53.078;8.720;2023-03-23T07:53:12;1.40;;;0.80;;
23814;SDS011;12088;53.078;8.720;2023-03-23T07:55:38;5.07;;;1.57;;
23814;SDS011;12088;53.078;8.720;2023-03-23T07:58:04;2.33;;;1.50;;
23814;SDS011;12088;53.078;8.720;2023-03-23T08:00:29;3.93;;;0.97;;
23814;SDS011;12088;53.078;8.720;2023-03-23T08:02:56;0.90;;;0.90;;
23814;SDS011;12088;53.078;8.720;2023-03-23T08:05:22;2.53;;;0.97;;
23814;SDS011;12088;53.078;8.720;2023-03-23T08:07:50;3.80;;;1.07;;
23814;SDS011;12088;53.078;8.720;2023-03-23T08:10:17;2.30;;;1.47;;
23814;SDS011;12088;53.078;8.720;2023-03-23T08:12:43;0.90;;;0.90;;
23814;SDS011;12088;53.078;8.720;2023-03-23T08:15:10;0.87;;;0.80;;
23814;SDS011;12088;53.078;8.720;2023-03-23T08:17:40;1.83;;;1.07;;
23814;SDS011;12088;53.078;8.720;2023-03-23T08:20:07;4.30;;;0.87;;
23814;SDS011;12088;53.078;8.720;2023-03-23T08:22:38;2.03;;;0.87;;
23814;SDS011;12088;53.078;8.720;2023-03-23T08:25:05;3.70;;;0.93;;
23814;SDS011;12088;53.078;8.720;2023-03-23T08:27:32;3.20;;;0.97;;
23814;SDS011;12088;53.078;8.720;2023-03-23T08:29:58;4.83;;;0.77;;
23814;SDS011;12088;53.078;8.720;2023-03-23T08:32:24;0.63;;;0.60;;
23814;SDS011;12088;53.078;8.720;2023-03-23T08:34:50;1.13;;;1.03;;
23814;SDS011;12088;53.078;8.720;2023-03-23T08:37:16;1.30;;;1.20;;
23814;SDS011;12088;53.078;8.720;2023-03-23T08:39:42;0.80;;;0.80;;
23814;SDS011;12088;53.078;8.720;2023-03-23T08:42:11;1.00;;;1.00;;
23814;SDS011;12088;53.078;8.720;2023-03-23T08:44:37;1.57;;;1.07;;
23814;SDS011;12088;53.078;8.720;2023-03-23T08:47:03;1.67;;;1.13;;
23814;SDS011;12088;53.078;8.720;2023-03-23T08:49:30;2.53;;;0.90;;
23814;SDS011;12088;53.078;8.720;2023-03-23T08:51:58;1.27;;;1.00;;
23814;SDS011;12088;53.078;8.720;2023-03-23T08:54:24;1.60;;;1.03;;
23814;SDS011;12088;53.078;8.720;2023-03-23T08:56:51;1.97;;;0.83;;
23814;SDS011;12088;53.078;8.720;2023-03-23T08:59:17;1.00;;;0.90;;
23814;SDS011;12088;53.078;8.720;2023-03-23T09:01:43;1.20;;;0.87;;
23814;SDS011;12088;53.078;8.720;2023-03-23T09:04:08;0.97;;;0.87;;
23814;SDS011;12088;53.078;8.720;2023-03-23T09:06:35;4.83;;;2.00;;
23814;SDS011;12088;53.078;8.720;2023-03-23T09:09:01;8.63;;;1.17;;
23814;SDS011;12088;53.078;8.720;2023-03-23T09:11:31;2.20;;;1.43;;
23814;SDS011;12088;53.078;8.720;2023-03-23T09:14:00;2.00;;;1.13;;
23814;SDS011;12088;53.078;8.720;2023-03-23T09:16:26;1.47;;;1.37;;
23814;SDS011;12088;53.078;8.720;2023-03-23T09:18:52;5.53;;;1.43;;
23814;SDS011;12088;53.078;8.720;2023-03-23T09:21:18;0.70;;;0.70;;
23814;SDS011;12088;53.078;8.720;2023-03-23T09:23:44;3.40;;;1.70;;
23814;SDS011;12088;53.078;8.720;2023-03-23T09:26:10;1.27;;;1.00;;
23814;SDS011;12088;53.078;8.720;2023-03-23T09:28:35;3.13;;;0.93;;
23814;SDS011;12088;53.078;8.720;2023-03-23T09:31:01;5.13;;;1.70;;
23814;SDS011;12088;53.078;8.720;2023-03-23T09:33:27;1.10;;;0.83;;
23814;SDS011;12088;53.078;8.720;2023-03-23T09:35:57;2.57;;;1.77;;
23814;SDS011;12088;53.078;8.720;2023-03-23T09:38:23;1.53;;;1.30;;
23814;SDS011;12088;53.078;8.720;2023-03-23T09:41:34;5.47;;;1.27;;
23814;SDS011;12088;53.078;8.720;2023-03-23T09:44:21;1.60;;;1.37;;
23814;SDS011;12088;53.078;8.720;2023-03-23T09:46:48;1.97;;;0.87;;
23814;SDS011;12088;53.078;8.720;2023-03-23T09:49:22;3.93;;;1.23;;
23814;SDS011;12088;53.078;8.720;2023-03-23T09:52:03;2.10;;;1.13;;
23814;SDS011;12088;53.078;8.720;2023-03-23T09:54:44;3.13;;;1.03;;
23814;SDS011;12088;53.078;8.720;2023-03-23T09:57:15;5.77;;;1.57;;
23814;SDS011;12088;53.078;8.720;2023-03-23T09:59:52;2.47;;;1.03;;
23814;SDS011;12088;53.078;8.720;2023-03-23T10:02:35;4.60;;;1.00;;
23814;SDS011;12088;53.078;8.720;2023-03-23T10:05:23;3.30;;;1.33;;
23814;SDS011;12088;53.078;8.720;2023-03-23T10:07:50;2.93;;;1.23;;
23814;SDS011;12088;53.078;8.720;2023-03-23T10:10:16;6.80;;;1.70;;
23814;SDS011;12088;53.078;8.720;2023-03-23T10:12:45;3.57;;;0.97;;
23814;SDS011;12088;53.078;8.720;2023-03-23T10:15:17;2.57;;;1.33;;
23814;SDS011;12088;53.078;8.720;2023-03-23T10:18:00;1.90;;;1.23;;
23814;SDS011;12088;53.078;8.720;2023-03-23T10:28:38;3.30;;;1.20;;
23814;SDS011;12088;53.078;8.720;2023-03-23T10:31:09;8.20;;;1.30;;
23814;SDS011;12088;53.078;8.720;2023-03-23T10:33:47;2.37;;;1.53;;
23814;SDS011;12088;53.078;8.720;2023-03-23T10:41:36;2.83;;;1.00;;
23814;SDS011;12088;53.078;8.720;2023-03-23T10:44:07;2.03;;;1.40;;
23814;SDS011;12088;53.078;8.720;2023-03-23T10:46:45;1.57;;;1.40;;
23814;SDS011;12088;53.078;8.720;2023-03-23T10:49:23;3.57;;;1.23;;
23814;SDS011;12088;53.078;8.720;2023-03-23T10:55:13;4.80;;;1.23;;
23814;SDS011;12088;53.078;8.720;2023-03-23T10:57:41;3.30;;;1.70;;
23814;SDS011;12088;53.078;8.720;2023-03-23T11:00:27;2.47;;;1.40;;
23814;SDS011;12088;53.078;8.720;2023-03-23T11:03:20;2.47;;;1.10;;
23814;SDS011;12088;53.078;8.720;2023-03-23T11:06:05;3.90;;;1.13;;
23814;SDS011;12088;53.078;8.720;2023-03-23T11:11:27;4.17;;;0.90;;
23814;SDS011;12088;53.078;8.720;2023-03-23T11:14:29;4.47;;;1.33;;
23814;SDS011;12088;53.078;8.720;2023-03-23T11:16:53;3.63;;;2.57;;
23814;SDS011;12088;53.078;8.720;2023-03-23T11:19:30;4.50;;;1.20;;
23814;SDS011;12088;53.078;8.720;2023-03-23T11:24:30;4.43;;;1.60;;
23814;SDS011;12088;53.078;8.720;2023-03-23T11:27:08;1.47;;;1.37;;
23814;SDS011;12088;53.078;8.720;2023-03-23T11:29:35;2.90;;;1.90;;
23814;SDS011;12088;53.078;8.720;2023-03-23T11:32:09;1.63;;;1.47;;
23814;SDS011;12088;53.078;8.720;2023-03-23T11:34:43;1.50;;;1.00;;
23814;SDS011;12088;53.078;8.720;2023-03-23T11:37:14;3.80;;;1.30;;
23814;SDS011;12088;53.078;8.720;2023-03-23T11:39:53;1.17;;;1.07;;
23814;SDS011;12088;53.078;8.720;2023-03-23T11:47:45;2.77;;;1.10;;
23814;SDS011;12088;53.078;8.720;2023-03-23T11:50:17;1.57;;;1.23;;
23814;SDS011;12088;53.078;8.720;2023-03-23T11:55:13;5.10;;;1.77;;
23814;SDS011;12088;53.078;8.720;2023-03-23T11:57:40;1.03;;;0.93;;
23814;SDS011;12088;53.078;8.720;2023-03-23T12:00:16;1.30;;;1.20;;
23814;SDS011;12088;53.078;8.720;2023-03-23T12:02:55;3.27;;;1.10;;
23814;SDS011;12088;53.078;8.720;2023-03-23T12:05:28;1.13;;;1.03;;
23814;SDS011;12088;53.078;8.720;2023-03-23T12:08:04;1.77;;;1.13;;
23814;SDS011;12088;53.078;8.720;2023-03-23T12:10:38;2.10;;;1.17;;
23814;SDS011;12088;53.078;8.720;2023-03-23T12:13:14;2.77;;;1.00;;
23814;SDS011;12088;53.078;8.720;2023-03-23T12:15:51;2.93;;;0.83;;
23814;SDS011;12088;53.078;8.720;2023-03-23T12:20:55;0.90;;;0.83;;
23814;SDS011;12088;53.078;8.720;2023-03-23T12:23:24;3.90;;;0.90;;
23814;SDS011;12088;53.078;8.720;2023-03-23T12:25:56;1.80;;;1.03;;
23814;SDS011;12088;53.078;8.720;2023-03-23T12:28:41;6.78;;;1.48;;
23814;SDS011;12088;53.078;8.720;2023-03-23T12:31:15;1.20;;;0.95;;
23814;SDS011;12088;53.078;8.720;2023-03-23T12:36:50;3.22;;;0.85;;
23814;SDS011;12088;53.078;8.720;2023-03-23T12:39:37;1.60;;;1.40;;
23814;SDS011;12088;53.078;8.720;2023-03-23T12:44:43;2.92;;;1.08;;
23814;SDS011;12088;53.078;8.720;2023-03-23T12:47:27;1.65;;;0.82;;
23814;SDS011;12088;53.078;8.720;2023-03-23T12:50:03;1.80;;;1.23;;
23814;SDS011;12088;53.078;8.720;2023-03-23T12:52:35;1.27;;;0.93;;
23814;SDS011;12088;53.078;8.720;2023-03-23T12:55:13;0.85;;;0.85;;
23814;SDS011;12088;53.078;8.720;2023-03-23T12:57:46;3.90;;;1.13;;
23814;SDS011;12088;53.078;8.720;2023-03-23T13:00:21;9.27;;;1.08;;
23814;SDS011;12088;53.078;8.720;2023-03-23T13:07:52;0.93;;;0.70;;
23814;SDS011;12088;53.078;8.720;2023-03-23T13:10:21;2.67;;;0.90;;
23814;SDS011;12088;53.078;8.720;2023-03-23T13:12:48;9.52;;;1.55;;
23814;SDS011;12088;53.078;8.720;2023-03-23T13:18:04;2.25;;;0.80;;
23814;SDS011;12088;53.078;8.720;2023-03-23T13:20:41;1.80;;;0.88;;
23814;SDS011;12088;53.078;8.720;2023-03-23T13:28:34;1.47;;;0.80;;
23814;SDS011;12088;53.078;8.720;2023-03-23T13:31:03;3.43;;;1.03;;
23814;SDS011;12088;53.078;8.720;2023-03-23T13:33:30;0.77;;;0.77;;
23814;SDS011;12088;53.078;8.720;2023-03-23T13:35:56;2.63;;;0.90;;
23814;SDS011;12088;53.078;8.720;2023-03-23T13:38:30;3.73;;;0.60;;
23814;SDS011;12088;53.078;8.720;2023-03-23T13:40:56;1.57;;;1.03;;
23814;SDS011;12088;53.078;8.720;2023-03-23T13:43:30;3.03;;;1.00;;
23814;SDS011;12088;53.078;8.720;2023-03-23T13:46:06;1.30;;;1.10;;
23814;SDS011;12088;53.078;8.720;2023-03-23T13:48:39;0.87;;;0.87;;
23814;SDS011;12088;53.078;8.720;2023-03-23T13:51:21;1.17;;;1.17;;
23814;SDS011;12088;53.078;8.720;2023-03-23T13:53:48;1.23;;;0.80;;
23814;SDS011;12088;53.078;8.720;2023-03-23T13:56:18;0.60;;;0.60;;
23814;SDS011;12088;53.078;8.720;2023-03-23T13:58:48;0.40;;;0.40;;
23814;SDS011;12088;53.078;8.720;2023-03-23T14:01:18;0.73;;;0.73;;
23814;SDS011;12088;53.078;8.720;2023-03-23T14:03:46;0.33;;;0.33;;
23814;SDS011;12088;53.078;8.720;2023-03-23T14:06:16;4.27;;;0.60;;
23814;SDS011;12088;53.078;8.720;2023-03-23T14:08:50;0.83;;;0.80;;
23814;SDS011;12088;53.078;8.720;2023-03-23T14:16:20;0.97;;;0.90;;
23814;SDS011;12088;53.078;8.720;2023-03-23T14:18:48;0.70;;;0.50;;
23814;SDS011;12088;53.078;8.720;2023-03-23T14:21:16;1.43;;;1.33;;
23814;SDS011;12088;53.078;8.720;2023-03-23T14:23:46;0.70;;;0.70;;
23814;SDS011;12088;53.078;8.720;2023-03-23T14:26:12;3.53;;;0.60;;
23814;SDS011;12088;53.078;8.720;2023-03-23T14:28:43;3.30;;;0.67;;
23814;SDS011;12088;53.078;8.720;2023-03-23T14:31:23;0.97;;;0.80;;
23814;SDS011;12088;53.078;8.720;2023-03-23T14:33:50;4.63;;;1.30;;
23814;SDS011;12088;53.078;8.720;2023-03-23T14:36:26;0.60;;;0.60;;
23814;SDS011;12088;53.078;8.720;2023-03-23T14:41:32;3.53;;;0.70;;
23814;SDS011;12088;53.078;8.720;2023-03-23T14:44:00;2.67;;;1.23;;
23814;SDS011;12088;53.078;8.720;2023-03-23T14:46:27;1.40;;;1.02;;
23814;SDS011;12088;53.078;8.720;2023-03-23T14:48:55;0.88;;;0.70;;
23814;SDS011;12088;53.078;8.720;2023-03-23T14:51:24;0.57;;;0.57;;
23814;SDS011;12088;53.078;8.720;2023-03-23T14:53:49;1.63;;;1.05;;
23814;SDS011;12088;53.078;8.720;2023-03-23T14:56:18;0.40;;;0.40;;
23814;SDS011;12088;53.078;8.720;2023-03-23T14:58:48;1.35;;;1.25;;
23814;SDS011;12088;53.078;8.720;2023-03-23T15:01:17;1.00;;;0.90;;
23814;SDS011;12088;53.078;8.720;2023-03-23T15:03:56;0.93;;;0.77;;
23814;SDS011;12088;53.078;8.720;2023-03-23T15:06:36;0.95;;;0.82;;
23814;SDS011;12088;53.078;8.720;2023-03-23T15:09:05;1.40;;;0.80;;
23814;SDS011;12088;53.078;8.720;2023-03-23T15:11:36;2.75;;;0.82;;
23814;SDS011;12088;53.078;8.720;2023-03-23T15:14:09;0.98;;;0.70;;
23814;SDS011;12088;53.078;8.720;2023-03-23T15:16:51;4.10;;;1.10;;
23814;SDS011;12088;53.078;8.720;2023-03-23T15:19:21;3.07;;;0.60;;
23814;SDS011;12088;53.078;8.720;2023-03-23T15:26:45;0.67;;;0.67;;
23814;SDS011;12088;53.078;8.720;2023-03-23T15:29:12;3.77;;;0.73;;
23814;SDS011;12088;53.078;8.720;2023-03-23T15:31:46;0.80;;;0.80;;
23814;SDS011;12088;53.078;8.720;2023-03-23T15:34:24;0.63;;;0.63;;
23814;SDS011;12088;53.078;8.720;2023-03-23T15:36:58;1.00;;;0.90;;
23814;SDS011;12088;53.078;8.720;2023-03-23T15:39:26;2.43;;;0.83;;
23814;SDS011;12088;53.078;8.720;2023-03-23T15:41:52;0.93;;;0.63;;
23814;SDS011;12088;53.078;8.720;2023-03-23T15:44:23;0.50;;;0.50;;
23814;SDS011;12088;53.078;8.720;2023-03-23T15:46:52;5.77;;;0.90;;
23814;SDS011;12088;53.078;8.720;2023-03-23T15:49:25;2.67;;;0.60;;
23814;SDS011;12088;53.078;8.720;2023-03-23T15:51:51;0.50;;;0.50;;
23814;SDS011;12088;53.078;8.720;2023-03-23T15:54:17;1.40;;;1.10;;
23814;SDS011;12088;53.078;8.720;2023-03-23T15:56:43;1.03;;;1.03;;
23814;SDS011;12088;53.078;8.720;2023-03-23T15:59:09;0.73;;;0.70;;
23814;SDS011;12088;53.078;8.720;2023-03-23T16:01:36;3.40;;;0.63;;
23814;SDS011;12088;53.078;8.720;2023-03-23T16:04:04;1.17;;;0.90;;
23814;SDS011;12088;53.078;8.720;2023-03-23T16:06:33;1.60;;;0.83;;
23814;SDS011;12088;53.078;8.720;2023-03-23T16:09:00;0.60;;;0.60;;
23814;SDS011;12088;53.078;8.720;2023-03-23T16:11:28;0.70;;;0.50;;
23814;SDS011;12088;53.078;8.720;2023-03-23T16:13:55;3.27;;;1.23;;
23814;SDS011;12088;53.078;8.720;2023-03-23T16:16:26;3.30;;;1.80;;
23814;SDS011;12088;53.078;8.720;2023-03-23T16:18:53;0.40;;;0.40;;
23814;SDS011;12088;53.078;8.720;2023-03-23T16:21:19;0.47;;;0.47;;
23814;SDS011;12088;53.078;8.720;2023-03-23T16:23:46;6.40;;;1.07;;
23814;SDS011;12088;53.078;8.720;2023-03-23T16:26:12;0.70;;;0.70;;